createdAt,value
2022-10-09T00:02:32.565Z,3.30
2022-10-09T00:05:18.362Z,2.58
2022-10-09T00:08:09.705Z,3.10
2022-10-09T00:10:56.427Z,2.95
2022-10-09T00:13:41.985Z,3.97
2022-10-09T00:16:34.631Z,2.50
2022-10-09T00:19:34.484Z,2.90
2022-10-09T00:22:54.959Z,2.80
2022-10-09T00:25:49.689Z,3.33
2022-10-09T00:28:38.487Z,3.83
2022-10-09T00:31:24.530Z,2.72
2022-10-09T00:34:10.056Z,3.35
2022-10-09T00:36:56.139Z,3.13
2022-10-09T00:39:41.448Z,3.67
2022-10-09T00:42:49.643Z,2.53
2022-10-09T00:45:54.204Z,3.22
2022-10-09T00:48:39.614Z,2.55
2022-10-09T00:51:25.262Z,2.65
2022-10-09T00:54:14.223Z,2.45
2022-10-09T00:56:59.860Z,2.63
2022-10-09T00:59:45.747Z,2.95
2022-10-09T01:02:31.331Z,2.97
2022-10-09T01:05:16.944Z,2.53
2022-10-09T01:08:24.413Z,2.95
2022-10-09T01:11:30.346Z,2.42
2022-10-09T01:14:28.386Z,2.38
2022-10-09T01:17:22.045Z,3.22
2022-10-09T01:21:13.148Z,3.13
2022-10-09T01:24:06.291Z,2.65
2022-10-09T01:27:04.042Z,1.80
2022-10-09T01:29:55.352Z,1.90
2022-10-09T01:32:49.256Z,2.20
2022-10-09T01:35:35.332Z,3.03
2022-10-09T01:38:23.338Z,2.03
2022-10-09T01:41:09.339Z,2.08
2022-10-09T01:43:55.022Z,2.15
2022-10-09T01:46:40.567Z,2.25
2022-10-09T01:50:02.650Z,2.40
2022-10-09T01:52:55.851Z,2.60
2022-10-09T01:56:05.943Z,2.30
2022-10-09T01:59:02.153Z,1.92
2022-10-09T02:01:48.311Z,2.20
2022-10-09T02:04:36.924Z,2.55
2022-10-09T02:07:24.202Z,2.65
2022-10-09T02:10:13.619Z,2.13
2022-10-09T02:13:25.577Z,2.30
2022-10-09T02:16:36.818Z,1.98
2022-10-09T02:19:47.381Z,2.38
2022-10-09T02:22:34.403Z,1.63
2022-10-09T02:25:19.992Z,2.60
2022-10-09T02:28:12.532Z,2.10
2022-10-09T02:31:05.845Z,2.00
2022-10-09T02:34:19.545Z,2.25
2022-10-09T02:37:24.726Z,2.72
2022-10-09T02:40:11.053Z,2.00
2022-10-09T02:42:57.348Z,2.00
2022-10-09T02:45:43.499Z,1.80
2022-10-09T02:48:29.096Z,2.80
2022-10-09T02:52:16.552Z,2.20
2022-10-09T02:55:03.061Z,1.60
2022-10-09T02:58:03.620Z,2.22
2022-10-09T03:00:53.593Z,1.95
2022-10-09T03:03:50.534Z,1.95
2022-10-09T03:07:05.636Z,2.65
2022-10-09T03:13:39.814Z,2.47
2022-10-09T03:16:26.680Z,2.65
2022-10-09T03:19:12.467Z,2.30
2022-10-09T03:21:57.862Z,2.20
2022-10-09T03:28:40.221Z,2.65
2022-10-09T03:31:50.397Z,2.17
2022-10-09T03:34:32.660Z,2.70
2022-10-09T03:37:18.396Z,2.50
2022-10-09T03:40:04.397Z,2.55
2022-10-09T03:42:50.180Z,2.25
2022-10-09T03:45:38.784Z,2.05
2022-10-09T03:48:48.216Z,2.75
2022-10-09T03:51:34.239Z,2.20
2022-10-09T03:54:22.021Z,2.30
2022-10-09T03:57:07.241Z,1.92
2022-10-09T03:59:52.646Z,2.70
2022-10-09T04:02:38.180Z,2.08
2022-10-09T04:05:47.125Z,2.90
2022-10-09T04:08:36.690Z,1.97
2022-10-09T04:11:23.503Z,2.75
2022-10-09T04:14:08.984Z,2.13
2022-10-09T04:16:54.459Z,2.35
2022-10-09T04:19:39.948Z,2.33
2022-10-09T04:22:25.805Z,2.10
2022-10-09T04:25:29.037Z,2.15
2022-10-09T04:28:14.687Z,2.33
2022-10-09T04:31:00.243Z,2.15
2022-10-09T04:33:45.621Z,2.08
2022-10-09T04:36:38.515Z,2.30
2022-10-09T04:39:24.134Z,3.03
2022-10-09T04:42:09.567Z,3.05
2022-10-09T04:44:55.129Z,2.78
2022-10-09T04:47:40.598Z,3.00
2022-10-09T04:50:26.206Z,3.53
2022-10-09T04:53:11.995Z,2.42
2022-10-09T04:55:58.139Z,3.30
2022-10-09T04:58:44.051Z,4.82
2022-10-09T05:01:32.031Z,4.32
2022-10-09T05:04:19.838Z,3.97
2022-10-09T05:07:05.627Z,3.95
2022-10-09T05:09:51.216Z,3.30
2022-10-09T05:12:36.766Z,3.60
2022-10-09T05:15:36.863Z,4.00
2022-10-09T05:19:12.255Z,3.35
2022-10-09T05:22:23.596Z,2.78
2022-10-09T05:25:09.509Z,3.33
2022-10-09T05:27:55.095Z,3.20
2022-10-09T05:34:32.925Z,3.17
2022-10-09T05:37:25.910Z,3.78
2022-10-09T05:40:11.657Z,2.50
2022-10-09T05:46:45.458Z,2.90
2022-10-09T05:52:26.543Z,3.45
2022-10-09T05:55:34.233Z,3.15
2022-10-09T05:58:20.504Z,3.00
2022-10-09T06:01:05.951Z,2.80
2022-10-09T06:03:57.971Z,3.58
2022-10-09T06:06:44.017Z,2.40
2022-10-09T06:09:29.442Z,3.30
2022-10-09T06:12:14.857Z,2.88
2022-10-09T06:15:00.595Z,3.15
2022-10-09T06:17:45.780Z,3.13
2022-10-09T06:20:31.556Z,3.25
2022-10-09T06:23:16.888Z,2.90
2022-10-09T06:26:06.653Z,3.08
2022-10-09T06:28:53.167Z,2.40
2022-10-09T06:31:38.601Z,3.53
2022-10-09T06:34:24.596Z,3.25
2022-10-09T06:37:10.227Z,2.60
2022-10-09T06:39:55.804Z,2.63
2022-10-09T06:42:41.337Z,3.00
2022-10-09T06:45:26.490Z,3.15
2022-10-09T06:48:12.149Z,2.63
2022-10-09T06:51:05.994Z,2.95
2022-10-09T06:53:54.267Z,3.80
2022-10-09T06:56:40.040Z,2.63
2022-10-09T06:59:25.302Z,2.90
2022-10-09T07:02:10.942Z,2.45
2022-10-09T07:04:56.410Z,2.08
2022-10-09T07:07:42.647Z,2.85
2022-10-09T07:10:28.170Z,2.20
2022-10-09T07:13:13.684Z,2.70
2022-10-09T07:16:02.633Z,3.13
2022-10-09T07:18:50.473Z,2.13
2022-10-09T07:21:37.009Z,1.80
2022-10-09T07:24:24.669Z,3.60
2022-10-09T07:27:09.932Z,1.98
2022-10-09T07:29:55.555Z,2.40
2022-10-09T07:32:40.966Z,2.78
2022-10-09T07:35:26.479Z,2.00
2022-10-09T07:38:11.808Z,1.88
2022-10-09T07:41:02.184Z,2.30
2022-10-09T07:43:47.746Z,2.08
2022-10-09T07:46:34.135Z,1.77
2022-10-09T07:49:20.293Z,1.75
2022-10-09T07:52:05.631Z,1.50
2022-10-09T07:54:51.107Z,1.35
2022-10-09T07:57:36.655Z,1.40
2022-10-09T08:00:22.186Z,1.55
2022-10-09T08:03:08.008Z,1.67
2022-10-09T08:05:56.836Z,1.48
2022-10-09T08:08:42.578Z,1.50
2022-10-09T08:11:32.530Z,1.58
2022-10-09T08:14:19.562Z,1.70
2022-10-09T08:17:05.640Z,1.42
2022-10-09T08:19:51.069Z,1.23
2022-10-09T08:22:36.766Z,2.17
2022-10-09T08:25:21.894Z,1.70
2022-10-09T08:28:07.575Z,1.55
2022-10-09T08:30:53.382Z,1.75
2022-10-09T08:33:38.855Z,1.35
2022-10-09T08:36:24.917Z,1.70
2022-10-09T08:39:10.129Z,1.38
2022-10-09T08:41:58.602Z,1.40
2022-10-09T08:44:49.064Z,1.85
2022-10-09T08:47:42.880Z,1.08
2022-10-09T08:50:38.022Z,1.33
2022-10-09T08:53:44.099Z,1.23
2022-10-09T08:56:30.867Z,1.60
2022-10-09T08:59:16.363Z,1.20
2022-10-09T09:02:19.233Z,1.67
2022-10-09T09:05:31.344Z,1.52
2022-10-09T09:08:44.167Z,1.63
2022-10-09T09:11:44.952Z,1.90
2022-10-09T09:14:52.041Z,1.00
2022-10-09T09:17:48.962Z,1.80
2022-10-09T09:20:50.520Z,1.52
2022-10-09T09:23:43.505Z,1.30
2022-10-09T09:26:29.358Z,1.45
2022-10-09T09:29:17.916Z,1.65
2022-10-09T09:32:03.287Z,1.33
2022-10-09T09:34:49.097Z,1.95
2022-10-09T09:37:34.417Z,1.35
2022-10-09T09:40:39.293Z,1.55
2022-10-09T09:43:27.555Z,1.50
2022-10-09T09:46:20.606Z,1.88
2022-10-09T09:49:26.643Z,1.60
2022-10-09T09:52:12.600Z,1.27
2022-10-09T09:54:59.071Z,2.90
2022-10-09T09:57:46.861Z,1.20
2022-10-09T10:00:32.778Z,1.67
2022-10-09T10:03:18.365Z,1.48
2022-10-09T10:06:04.028Z,1.67
2022-10-09T10:09:01.079Z,1.80
2022-10-09T10:12:06.834Z,1.35
2022-10-09T10:14:52.222Z,1.33
2022-10-09T10:17:38.105Z,1.50
2022-10-09T10:20:23.946Z,1.45
2022-10-09T10:23:43.450Z,1.40
2022-10-09T10:26:46.866Z,1.40
2022-10-09T10:29:34.195Z,2.05
2022-10-09T10:32:37.800Z,1.63
2022-10-09T10:35:29.194Z,1.33
2022-10-09T10:38:37.869Z,1.52
2022-10-09T10:41:35.206Z,1.80
2022-10-09T10:44:43.928Z,1.17
2022-10-09T10:47:34.119Z,1.33
2022-10-09T10:50:20.861Z,1.05
2022-10-09T10:53:35.776Z,1.40
2022-10-09T10:56:23.737Z,1.35
2022-10-09T10:59:38.005Z,1.88
2022-10-09T11:02:42.353Z,1.90
2022-10-09T11:05:37.694Z,1.83
2022-10-09T11:08:35.965Z,1.73
2022-10-09T11:11:33.712Z,1.23
2022-10-09T11:14:25.362Z,1.50
2022-10-09T11:17:36.972Z,1.30
2022-10-09T11:20:43.959Z,1.70
2022-10-09T11:24:11.821Z,1.50
2022-10-09T11:27:25.801Z,1.95
2022-10-09T11:30:16.973Z,1.90
2022-10-09T11:33:23.988Z,1.52
2022-10-09T11:36:22.706Z,1.77
2022-10-09T11:39:33.247Z,1.70
2022-10-09T11:42:25.109Z,1.83
2022-10-09T11:45:32.176Z,1.33
2022-10-09T11:48:32.780Z,1.40
2022-10-09T11:51:44.143Z,1.58
2022-10-09T11:54:30.885Z,2.10
2022-10-09T11:57:28.388Z,1.58
2022-10-09T12:00:15.050Z,1.20
2022-10-09T12:03:03.389Z,1.63
2022-10-09T12:05:49.969Z,1.77
2022-10-09T12:08:36.527Z,1.33
2022-10-09T12:11:23.741Z,1.98
2022-10-09T12:14:11.887Z,1.98
2022-10-09T12:16:58.417Z,1.38
2022-10-09T12:19:45.180Z,1.70
2022-10-09T12:23:14.404Z,2.00
2022-10-09T12:26:04.095Z,1.50
2022-10-09T12:29:00.226Z,1.17
2022-10-09T12:31:47.132Z,1.50
2022-10-09T12:34:53.196Z,1.83
2022-10-09T12:37:38.937Z,1.35
2022-10-09T12:40:31.107Z,1.15
2022-10-09T12:43:19.358Z,1.63
2022-10-09T12:46:05.501Z,1.60
2022-10-09T12:48:51.127Z,1.08
2022-10-09T12:51:36.475Z,1.13
2022-10-09T12:54:25.217Z,1.58
2022-10-09T12:57:16.564Z,1.70
2022-10-09T13:00:02.297Z,1.52
2022-10-09T13:02:48.274Z,0.70
2022-10-09T13:05:42.261Z,1.13
2022-10-09T13:08:31.741Z,2.38
2022-10-09T13:11:19.045Z,1.15
2022-10-09T13:14:05.025Z,1.42
2022-10-09T13:16:50.589Z,0.85
2022-10-09T13:19:37.150Z,1.23
2022-10-09T13:22:24.526Z,1.10
2022-10-09T13:25:10.105Z,1.23
2022-10-09T13:27:56.915Z,1.13
2022-10-09T13:30:42.389Z,1.27
2022-10-09T13:33:27.936Z,1.40
2022-10-09T13:36:14.962Z,1.67
2022-10-09T13:39:00.344Z,1.20
2022-10-09T13:41:48.808Z,1.10
2022-10-09T13:44:34.732Z,1.45
2022-10-09T13:47:24.245Z,1.40
2022-10-09T13:50:13.531Z,1.77
2022-10-09T13:53:00.292Z,1.50
2022-10-09T13:55:45.848Z,1.40
2022-10-09T13:58:31.639Z,0.98
2022-10-09T14:01:16.926Z,1.20
2022-10-09T14:04:02.593Z,1.25
2022-10-09T14:06:48.371Z,1.30
2022-10-09T14:09:34.263Z,1.60
2022-10-09T14:12:20.119Z,1.48
2022-10-09T14:15:06.162Z,1.17
2022-10-09T14:17:52.068Z,1.20
2022-10-09T14:20:37.816Z,1.30
2022-10-09T14:23:23.959Z,1.30
2022-10-09T14:26:09.811Z,1.30
2022-10-09T14:28:58.570Z,1.00
2022-10-09T14:31:44.857Z,1.27
2022-10-09T14:34:30.891Z,1.35
2022-10-09T14:37:29.877Z,1.50
2022-10-09T14:40:23.519Z,1.23
2022-10-09T14:43:08.878Z,2.65
2022-10-09T14:46:09.821Z,1.30
2022-10-09T14:48:59.555Z,0.93
2022-10-09T14:51:45.447Z,1.02
2022-10-09T14:54:31.158Z,1.17
2022-10-09T14:57:16.928Z,0.80
2022-10-09T15:00:05.139Z,1.00
2022-10-09T15:02:50.671Z,1.52
2022-10-09T15:05:36.130Z,0.98
2022-10-09T15:08:21.730Z,1.33
2022-10-09T15:11:07.843Z,1.05
2022-10-09T15:13:53.662Z,1.77
2022-10-09T15:16:39.216Z,0.98
2022-10-09T15:19:24.620Z,1.85
2022-10-09T15:22:10.277Z,1.90
2022-10-09T15:24:55.880Z,2.35
2022-10-09T15:27:41.505Z,2.85
2022-10-09T15:30:27.887Z,1.30
2022-10-09T15:33:13.268Z,1.35
2022-10-09T15:35:59.710Z,1.10
2022-10-09T15:38:45.473Z,0.75
2022-10-09T15:41:33.297Z,1.02
2022-10-09T15:44:21.787Z,1.25
2022-10-09T15:47:07.593Z,2.60
2022-10-09T15:49:54.079Z,2.08
2022-10-09T15:52:40.325Z,1.13
2022-10-09T15:55:34.337Z,1.30
2022-10-09T15:58:20.483Z,1.23
2022-10-09T16:01:08.889Z,1.17
2022-10-09T16:03:54.348Z,1.45
2022-10-09T16:06:40.861Z,0.95
2022-10-09T16:09:30.847Z,0.85
2022-10-09T16:12:16.597Z,1.10
2022-10-09T16:15:02.590Z,1.40
2022-10-09T16:17:50.718Z,0.90
2022-10-09T16:20:37.572Z,0.57
2022-10-09T16:23:22.969Z,0.93
2022-10-09T16:26:09.750Z,0.88
2022-10-09T16:28:55.403Z,1.05
2022-10-09T16:31:41.487Z,1.30
2022-10-09T16:34:27.372Z,1.30
2022-10-09T16:37:12.722Z,1.50
2022-10-09T16:39:58.753Z,1.27
2022-10-09T16:42:44.085Z,1.52
2022-10-09T16:45:29.771Z,1.20
2022-10-09T16:48:15.607Z,1.42
2022-10-09T16:51:00.771Z,1.25
2022-10-09T16:53:50.115Z,1.45
2022-10-09T16:56:37.928Z,1.90
2022-10-09T16:59:23.258Z,1.80
2022-10-09T17:02:14.153Z,1.90
2022-10-09T17:04:59.789Z,2.60
2022-10-09T17:07:45.194Z,2.33
2022-10-09T17:10:30.832Z,2.28
2022-10-09T17:13:16.640Z,2.00
2022-10-09T17:16:10.099Z,2.20
2022-10-09T17:18:58.093Z,2.25
2022-10-09T17:21:43.813Z,2.25
2022-10-09T17:24:29.664Z,2.00
2022-10-09T17:27:15.054Z,2.00
2022-10-09T17:30:00.574Z,1.80
2022-10-09T17:32:46.066Z,1.88
2022-10-09T17:35:31.883Z,1.70
2022-10-09T17:38:17.427Z,1.70
2022-10-09T17:41:07.739Z,1.88
2022-10-09T17:43:54.157Z,2.00
2022-10-09T17:46:39.668Z,2.20
2022-10-09T17:49:25.050Z,1.85
2022-10-09T17:52:11.043Z,2.42
2022-10-09T17:54:56.996Z,2.40
2022-10-09T17:57:42.904Z,2.67
2022-10-09T18:00:29.332Z,2.47
2022-10-09T18:03:16.348Z,2.42
2022-10-09T18:06:06.342Z,3.13
2022-10-09T18:08:54.307Z,2.08
2022-10-09T18:11:40.506Z,2.40
2022-10-09T18:14:26.697Z,2.30
2022-10-09T18:17:12.792Z,2.60
2022-10-09T18:19:58.598Z,2.40
2022-10-09T18:22:44.446Z,2.85
2022-10-09T18:25:30.975Z,2.90
2022-10-09T18:28:19.552Z,3.30
2022-10-09T18:31:07.604Z,3.28
2022-10-09T18:33:53.904Z,4.38
2022-10-09T18:36:40.031Z,3.30
2022-10-09T18:39:25.569Z,3.47
2022-10-09T18:42:11.073Z,2.90
2022-10-09T18:44:56.614Z,2.88
2022-10-09T18:47:42.590Z,2.97
2022-10-09T18:50:28.322Z,2.85
2022-10-09T18:53:13.623Z,3.10
2022-10-09T18:55:59.520Z,2.67
2022-10-09T18:58:45.259Z,2.88
2022-10-09T19:01:30.588Z,2.90
2022-10-09T19:04:16.146Z,3.15
2022-10-09T19:07:01.590Z,2.60
2022-10-09T19:09:52.423Z,2.80
2022-10-09T19:15:27.964Z,3.15
2022-10-09T19:18:14.286Z,3.17
2022-10-09T19:20:59.310Z,2.83
2022-10-09T19:23:50.346Z,3.60
2022-10-09T19:26:36.286Z,3.28
2022-10-09T19:29:22.081Z,3.63
2022-10-09T19:32:07.363Z,3.20
2022-10-09T19:34:53.008Z,4.45
2022-10-09T19:37:38.784Z,2.88
2022-10-09T19:40:24.214Z,3.10
2022-10-09T19:43:10.399Z,3.50
2022-10-09T19:46:07.678Z,3.40
2022-10-09T19:48:53.564Z,3.67
2022-10-09T19:51:38.834Z,4.82
2022-10-09T19:54:24.293Z,3.60
2022-10-09T19:57:09.879Z,4.28
2022-10-09T19:59:55.428Z,4.18
2022-10-09T20:02:40.899Z,4.18
2022-10-09T20:05:26.524Z,6.25
2022-10-09T20:08:11.708Z,5.80
2022-10-09T20:11:04.501Z,4.70
2022-10-09T20:13:55.497Z,4.82
2022-10-09T20:16:41.481Z,4.30
2022-10-09T20:19:30.767Z,4.70
2022-10-09T20:22:15.928Z,4.35
2022-10-09T20:25:01.548Z,3.78
2022-10-09T20:27:49.756Z,4.63
2022-10-09T20:30:35.061Z,4.95
2022-10-09T20:33:20.645Z,4.22
2022-10-09T20:36:06.550Z,3.88
2022-10-09T20:38:53.926Z,3.90
2022-10-09T20:41:40.869Z,4.35
2022-10-09T20:44:26.142Z,3.80
2022-10-09T20:47:11.705Z,3.58
2022-10-09T20:49:57.165Z,3.08
2022-10-09T20:52:42.708Z,4.10
2022-10-09T20:55:28.916Z,3.63
2022-10-09T20:58:14.188Z,3.80
2022-10-09T21:00:59.513Z,3.50
2022-10-09T21:03:45.110Z,3.80
2022-10-09T21:06:31.056Z,3.92
2022-10-09T21:09:16.356Z,4.32
2022-10-09T21:12:02.417Z,3.88
2022-10-09T21:14:48.002Z,4.57
2022-10-09T21:17:33.912Z,3.45
2022-10-09T21:20:19.097Z,3.42
2022-10-09T21:23:04.946Z,3.78
2022-10-09T21:25:52.653Z,3.65
2022-10-09T21:28:38.104Z,3.10
2022-10-09T21:31:27.777Z,3.28
2022-10-09T21:34:13.258Z,3.58
2022-10-09T21:37:20.515Z,3.40
2022-10-09T21:40:05.926Z,3.20
2022-10-09T21:42:52.171Z,3.28
2022-10-09T21:45:39.043Z,3.60
2022-10-09T21:48:24.572Z,4.07
2022-10-09T21:51:10.379Z,3.50
2022-10-09T21:53:56.141Z,3.67
2022-10-09T21:56:41.456Z,3.63
2022-10-09T21:59:26.962Z,4.35
2022-10-09T22:02:12.125Z,3.30
2022-10-09T22:04:57.889Z,4.10
2022-10-09T22:07:43.436Z,3.97
2022-10-09T22:10:28.946Z,3.58
2022-10-09T22:13:14.287Z,3.50
2022-10-09T22:16:00.003Z,3.83
2022-10-09T22:18:45.782Z,3.75
2022-10-09T22:21:31.133Z,4.20
2022-10-09T22:24:16.417Z,3.30
2022-10-09T22:27:02.024Z,4.13
2022-10-09T22:29:47.587Z,3.70
2022-10-09T22:32:33.611Z,3.65
2022-10-09T22:35:19.131Z,3.25
2022-10-09T22:38:05.021Z,4.30
2022-10-09T22:40:50.421Z,4.35
2022-10-09T22:43:36.607Z,3.58
2022-10-09T22:46:28.493Z,3.60
2022-10-09T22:49:16.048Z,3.75
2022-10-09T22:52:01.116Z,3.45
2022-10-09T22:54:46.726Z,4.03
2022-10-09T22:57:32.461Z,3.20
2022-10-09T23:00:18.031Z,3.28
2022-10-09T23:03:03.885Z,3.03
2022-10-09T23:05:49.087Z,3.15
2022-10-09T23:08:34.727Z,3.00
2022-10-09T23:11:21.471Z,2.80
2022-10-09T23:14:07.463Z,2.88
2022-10-09T23:16:52.952Z,2.60
2022-10-09T23:19:38.548Z,3.00
2022-10-09T23:22:24.051Z,2.40
2022-10-09T23:25:10.104Z,3.17
2022-10-09T23:27:55.534Z,2.58
2022-10-09T23:30:41.150Z,2.72
2022-10-09T23:33:26.738Z,3.40
2022-10-09T23:36:15.302Z,2.22
2022-10-09T23:39:02.051Z,3.05
2022-10-09T23:41:47.294Z,2.65
2022-10-09T23:44:33.215Z,2.67
2022-10-09T23:47:18.706Z,2.40
2022-10-09T23:50:06.086Z,2.25
2022-10-09T23:52:51.815Z,2.63
2022-10-09T23:55:37.429Z,2.33
2022-10-09T23:58:23.392Z,1.98
